Rushville, Nebraska
Current Conditions -  °F | °C
As of 2:52 PM on Tuesday 25 Nov 2014 (Local Time) from KIEN Reporting Station
Overcast Overcast  
Wind Chill: -1°   Ceiling: 7500
Heat Index:   Visibility: 10mi
Dew Point: -1°   Wind: 9mph
Humidity: 79%   Direction: 280°W
Pressure: 29.81"   Gusts: NA
Location:  42.72°N, 102.46°W
Report Text: KIEN 252152Z AUTO 28008KT 10SM BKN075 OVC095 03/M01 A2981 RMK AO2 SLP121 T00281006
Loading
Personal Weather Stations






























Interactive Weather Map New forecast layout! Learn more

10-Day Weather Forecast

Advertisements
Track Severe Weather on mobile